weather.gov     
National Weather Service

Terminal Aerodrome Forecast
NWS Homepage
This page is being discontinued on March 12, 2014.
The same data is available at this site. Please update your bookmarks.
Thank you, and we apologize for the inconvenience.
Please send an email to SR-SRH.Webmaster@noaa.gov with any concerns.


Current Version
Previous Version:    01  02  03  04  05  06  07  08  09  10  11  12  13  14  15  16  17  18  19  20  21  22  23  24  25  
[Printable]
743
FTUS42 KILM 230500
TAFILM
TAF
KILM 230539Z 2306/2406 VRB03KT P6SM BKN100
     FM231300 11004KT P6SM VCSH SCT040 BKN060
     FM231600 12005KT 6SM -RA SCT012 BKN025
     FM232000 13010KT 3SM RA BR BKN006 OVC015
     FM240200 17017KT 3SM -RA BR BKN010 OVC025=


U.S. Dept. of Commerce
NOAA National Weather Service
1325 East West Highway
Silver Spring, MD 20910
E-mail: w-nws.webmaster@noaa.gov
Page last modified: May 16, 2007
NATIONAL WEATHER SERVICE: for Safety, for Work, for Fun - FOR LIFE